Time;durP1;ratioP1;P1;durP2;ratioP2;P2;SDS_P1;SDS_P2;PMS_P1;PMS_P2;Temp;Humidity;BMP_temperature;BMP_pressure;BME280_temperature;BME280_humidity;BME280_pressure;Samples;Min_cycle;Max_cycle;Signal;HPM_P1;HPM_P2
2023/04/02 00:01:01;;;;;;;;;;;;;;;;;;5096405;28;19908;-69
2023/04/02 00:03:27;;;;;;;;;;;;;;;;;;5095787;28;20334;-69
2023/04/02 00:05:54;;;;;;;;;;;;;;;;;;5096150;28;19912;-69
2023/04/02 00:08:20;;;;;;;;;;;;;;;;;;5096061;28;19909;-68
2023/04/02 00:10:46;;;;;;;;;;;;;;;;;;5095578;28;19931;-68
2023/04/02 00:13:12;;;;;;;;;;;;;;;;;;5095650;28;19924;-68
2023/04/02 00:15:38;;;;;;;;;;;;;;;;;;5095958;28;19908;-69
2023/04/02 00:18:04;;;;;;;;;;;;;;;;;;5095578;28;20329;-69
2023/04/02 00:20:30;;;;;;;;;;;;;;;;;;5095824;28;19912;-69
2023/04/02 00:22:56;;;;;;;;;;;;;;;;;;5095756;28;19976;-69
2023/04/02 00:25:22;;;;;;;;;;;;;;;;;;5095318;28;19931;-69
2023/04/02 00:27:48;;;;;;;;;;;;;;;;;;5095636;28;19961;-71
2023/04/02 00:30:14;;;;;;;;;;;;;;;;;;5095823;28;19908;-68
2023/04/02 00:32:40;;;;;;;;;;;;;;;;;;5095260;28;19908;-69
2023/04/02 00:35:06;;;;;;;;;;;;;;;;;;5095582;28;19916;-68
2023/04/02 00:37:40;;;;;;;;;;;;;;;;;;5095348;28;19953;-68
2023/04/02 00:40:06;;;;;;;;;;;;;;;;;;5095012;28;19948;-68
2023/04/02 00:42:32;;;;;;;;;;;;;;;;;;5095340;28;19908;-68
2023/04/02 00:44:58;;;;;;;;;;;;;;;;;;5095900;28;19915;-68
2023/04/02 00:47:25;;;;;;;;;;;;;;;;;;5094927;28;19995;-68
2023/04/02 00:49:51;;;;;;;;;;;;;;;;;;5095213;28;19962;-68
2023/04/02 00:52:17;;;;;;;;;;;;;;;;;;5095133;28;20327;-68
2023/04/02 00:54:43;;;;;;;;;;;;;;;;;;5094694;28;19963;-68
2023/04/02 00:57:09;;;;;;;;;;;;;;;;;;5095099;28;19915;-68
2023/04/02 00:59:35;;;;;;;;;;;;;;;;;;5094738;28;19999;-68
2023/04/02 01:02:02;;;;;;;;;;;;;;;;;;5095153;28;19908;-68
2023/04/02 01:04:30;;;;;;;;;;;;;;;;;;5094967;28;19908;-68
2023/04/02 01:06:57;;;;;;;;;;;;;;;;;;5094520;28;19908;-68
2023/04/02 01:09:23;;;;;;;;;;;;;;;;;;5095130;28;19912;-68
2023/04/02 01:11:49;;;;;;;;;;;;;;;;;;5094809;28;19961;-68
2023/04/02 01:14:15;;;;;;;;;;;;;;;;;;5094113;28;19920;-68
2023/04/02 01:16:41;;;;;;;;;;;;;;;;;;5094931;28;19914;-68
2023/04/02 01:19:07;;;;;;;;;;;;;;;;;;5094722;28;19995;-68
2023/04/02 01:21:33;;;;;;;;;;;;;;;;;;5094206;28;19920;-68
2023/04/02 01:23:59;;;;;;;;;;;;;;;;;;5094168;28;19908;-68
2023/04/02 01:26:25;;;;;;;;;;;;;;;;;;5094510;28;19961;-69
2023/04/02 01:28:51;;;;;;;;;;;;;;;;;;5094146;28;19908;-69
2023/04/02 01:31:17;;;;;;;;;;;;;;;;;;5094655;28;19939;-69
2023/04/02 01:33:43;;;;;;;;;;;;;;;;;;5094652;28;19970;-68
2023/04/02 01:36:09;;;;;;;;;;;;;;;;;;5094296;28;19911;-69
2023/04/02 01:38:35;;;;;;;;;;;;;;;;;;5094393;28;19951;-67
2023/04/02 01:41:01;;;;;;;;;;;;;;;;;;5094284;28;19915;-67
2023/04/02 01:43:27;;;;;;;;;;;;;;;;;;5093895;28;19915;-66
2023/04/02 01:45:53;;;;;;;;;;;;;;;;;;5094158;28;19919;-66
2023/04/02 01:48:19;;;;;;;;;;;;;;;;;;5094197;28;19908;-67
2023/04/02 01:50:45;;;;;;;;;;;;;;;;;;5093821;28;19954;-68
2023/04/02 01:53:11;;;;;;;;;;;;;;;;;;5094241;28;19912;-68
2023/04/02 01:55:37;;;;;;;;;;;;;;;;;;5094101;28;19993;-68
2023/04/02 01:58:02;;;;;;;;;;;;;;;;;;5093611;28;19961;-68
2023/04/02 02:00:29;;;;;;;;;;;;;;;;;;5094084;28;19953;-68
2023/04/02 02:02:55;;;;;;;;;;;;;;;;;;5093930;28;19914;-68
2023/04/02 02:05:21;;;;;;;;;;;;;;;;;;5094015;28;19908;-68
2023/04/02 02:07:47;;;;;;;;;;;;;;;;;;5093991;28;19908;-68
2023/04/02 02:10:13;;;;;;;;;;;;;;;;;;5093481;28;19916;-68
2023/04/02 02:12:39;;;;;;;;;;;;;;;;;;5093705;28;19915;-68
2023/04/02 02:15:07;;;;;;;;;;;;;;;;;;5093959;28;19917;-69
2023/04/02 02:17:33;;;;;;;;;;;;;;;;;;5093483;28;20358;-69
2023/04/02 02:19:59;;;;;;;;;;;;;;;;;;5093880;28;19908;-69
2023/04/02 02:22:25;;;;;;;;;;;;;;;;;;5094217;28;20284;-67
2023/04/02 02:24:51;;;;;;;;;;;;;;;;;;5092093;28;20382;-67
2023/04/02 02:27:17;;;;;;;;;;;;;;;;;;5092470;28;19915;-68
2023/04/02 02:29:42;;;;;;;;;;;;;;;;;;5093728;28;20090;-68
2023/04/02 02:32:08;;;;;;;;;;;;;;;;;;5093454;28;19909;-67
2023/04/02 02:34:34;;;;;;;;;;;;;;;;;;5093818;28;20410;-68
2023/04/02 02:37:00;;;;;;;;;;;;;;;;;;5097761;28;19990;-67
2023/04/02 02:39:26;;;;;;;;;;;;;;;;;;5097571;28;19951;-67
2023/04/02 02:41:52;;;;;;;;;;;;;;;;;;5097683;28;20015;-68
2023/04/02 02:44:19;;;;;;;;;;;;;;;;;;5096429;28;19959;-68
2023/04/02 02:46:45;;;;;;;;;;;;;;;;;;5097243;28;20284;-68
2023/04/02 02:49:11;;;;;;;;;;;;;;;;;;5097658;28;19912;-68
2023/04/02 02:51:37;;;;;;;;;;;;;;;;;;5097878;28;19908;-68
2023/04/02 02:54:03;;;;;;;;;;;;;;;;;;5097043;28;19974;-68
2023/04/02 02:56:29;;;;;;;;;;;;;;;;;;5097504;28;19915;-67
2023/04/02 02:58:55;;;;;;;;;;;;;;;;;;5097400;28;19908;-68
2023/04/02 03:01:21;;;;;;;;;;;;;;;;;;5096970;28;19940;-67
2023/04/02 03:03:47;;;;;;;;;;;;;;;;;;5097649;28;20391;-68
2023/04/02 03:06:15;;;;;;;;;;;;;;;;;;5097110;28;19912;-68
2023/04/02 03:08:41;;;;;;;;;;;;;;;;;;5097273;28;19915;-68
2023/04/02 03:11:07;;;;;;;;;;;;;;;;;;5097144;28;19908;-68
2023/04/02 03:13:34;;;;;;;;;;;;;;;;;;5096488;28;19924;-68
2023/04/02 03:16:00;;;;;;;;;;;;;;;;;;5097080;28;19961;-68
2023/04/02 03:18:26;;;;;;;;;;;;;;;;;;5097074;28;19911;-68
2023/04/02 03:20:52;;;;;;;;;;;;;;;;;;5096627;28;19916;-68
2023/04/02 03:23:17;;;;;;;;;;;;;;;;;;5096951;28;19908;-68
2023/04/02 03:25:43;;;;;;;;;;;;;;;;;;5097067;28;19944;-69
2023/04/02 03:28:10;;;;;;;;;;;;;;;;;;5096401;28;19977;-69
2023/04/02 03:30:36;;;;;;;;;;;;;;;;;;5096847;28;19915;-69
2023/04/02 03:33:02;;;;;;;;;;;;;;;;;;5096724;28;19931;-69
2023/04/02 03:35:28;;;;;;;;;;;;;;;;;;5096274;28;20368;-69
2023/04/02 03:37:53;;;;;;;;;;;;;;;;;;5096667;28;20275;-69
2023/04/02 03:40:19;;;;;;;;;;;;;;;;;;5096741;28;19915;-69
2023/04/02 03:42:45;;;;;;;;;;;;;;;;;;5096224;28;19908;-69
2023/04/02 03:45:11;;;;;;;;;;;;;;;;;;5096443;28;19908;-69
2023/04/02 03:47:37;;;;;;;;;;;;;;;;;;5096117;28;19915;-69
2023/04/02 03:50:03;;;;;;;;;;;;;;;;;;5096068;28;19945;-69
2023/04/02 03:52:29;;;;;;;;;;;;;;;;;;5096320;28;19915;-69
2023/04/02 03:54:55;;;;;;;;;;;;;;;;;;5096523;28;19969;-69
2023/04/02 03:57:21;;;;;;;;;;;;;;;;;;5095941;28;20375;-69
2023/04/02 03:59:47;;;;;;;;;;;;;;;;;;5096317;28;19908;-69
2023/04/02 04:02:13;;;;;;;;;;;;;;;;;;5096423;28;19912;-67
2023/04/02 04:04:39;;;;;;;;;;;;;;;;;;5096024;28;19947;-67
2023/04/02 04:07:05;;;;;;;;;;;;;;;;;;5096056;28;19908;-67
2023/04/02 04:09:30;;;;;;;;;;;;;;;;;;5095687;28;20007;-67
2023/04/02 04:11:56;;;;;;;;;;;;;;;;;;5095975;28;19915;-67
2023/04/02 04:14:22;;;;;;;;;;;;;;;;;;5063781;28;19943;-68
2023/04/02 04:16:48;;;;;;;;;;;;;;;;;;5095702;28;20015;-68
2023/04/02 04:19:16;;;;;;;;;;;;;;;;;;5095897;28;19974;-68
2023/04/02 04:21:44;;;;;;;;;;;;;;;;;;5095829;28;20014;-68
2023/04/02 04:24:10;;;;;;;;;;;;;;;;;;5095384;28;19908;-68
2023/04/02 04:26:38;;;;;;;;;;;;;;;;;;5095906;28;20287;-68
2023/04/02 04:29:04;;;;;;;;;;;;;;;;;;5095785;28;19951;-68
2023/04/02 04:31:32;;;;;;;;;;;;;;;;;;5095239;28;19930;-68
2023/04/02 04:34:02;;;;;;;;;;;;;;;;;;5096032;28;19967;-68
2023/04/02 04:36:28;;;;;;;;;;;;;;;;;;5095669;28;19908;-68
2023/04/02 04:38:58;;;;;;;;;;;;;;;;;;5095162;28;19915;-68
2023/04/02 04:41:24;;;;;;;;;;;;;;;;;;5095359;28;19912;-68
2023/04/02 04:43:50;;;;;;;;;;;;;;;;;;5095604;28;19955;-68
2023/04/02 04:46:16;;;;;;;;;;;;;;;;;;5094953;28;19909;-68
2023/04/02 04:48:42;;;;;;;;;;;;;;;;;;5095324;28;19915;-68
2023/04/02 04:51:08;;;;;;;;;;;;;;;;;;5095110;28;19916;-68
2023/04/02 04:53:34;;;;;;;;;;;;;;;;;;5094824;28;19999;-68
2023/04/02 04:56:01;;;;;;;;;;;;;;;;;;5095172;28;19912;-68
2023/04/02 04:58:27;;;;;;;;;;;;;;;;;;5094308;28;19908;-68
2023/04/02 05:00:53;;;;;;;;;;;;;;;;;;5094822;28;20447;-68
2023/04/02 05:03:19;;;;;;;;;;;;;;;;;;5095037;28;20406;-67
2023/04/02 05:05:45;;;;;;;;;;;;;;;;;;5094711;28;19908;-68
2023/04/02 05:08:11;;;;;;;;;;;;;;;;;;5094871;28;19908;-68
2023/04/02 05:10:37;;;;;;;;;;;;;;;;;;5095255;28;20003;-67
2023/04/02 05:13:03;;;;;;;;;;;;;;;;;;5094191;28;19912;-67
2023/04/02 05:15:29;;;;;;;;;;;;;;;;;;5095050;28;19915;-68
2023/04/02 05:17:55;;;;;;;;;;;;;;;;;;5095021;28;19912;-67
2023/04/02 05:20:21;;;;;;;;;;;;;;;;;;5094280;28;19965;-67
2023/04/02 05:22:47;;;;;;;;;;;;;;;;;;5094619;28;19915;-68
2023/04/02 05:25:13;;;;;;;;;;;;;;;;;;5094560;28;19970;-67
2023/04/02 05:27:39;;;;;;;;;;;;;;;;;;5094174;28;19908;-68
2023/04/02 05:30:05;;;;;;;;;;;;;;;;;;5094534;28;19915;-68
2023/04/02 05:32:31;;;;;;;;;;;;;;;;;;5094555;28;19908;-68
2023/04/02 05:34:58;;;;;;;;;;;;;;;;;;5093979;28;20061;-69
2023/04/02 05:37:24;;;;;;;;;;;;;;;;;;5094420;28;19943;-69
2023/04/02 05:39:50;;;;;;;;;;;;;;;;;;5094524;28;20322;-68
2023/04/02 05:42:16;;;;;;;;;;;;;;;;;;5093958;28;19908;-69
2023/04/02 05:44:44;;;;;;;;;;;;;;;;;;5094330;28;19908;-67
2023/04/02 05:47:10;;;;;;;;;;;;;;;;;;5094432;28;19908;-67
2023/04/02 05:49:36;;;;;;;;;;;;;;;;;;5093802;28;19961;-67
2023/04/02 05:52:02;;;;;;;;;;;;;;;;;;5094401;28;19908;-68
2023/04/02 05:54:28;;;;;;;;;;;;;;;;;;5094055;28;19916;-67
2023/04/02 05:56:54;;;;;;;;;;;;;;;;;;5093673;28;20383;-67
2023/04/02 05:59:21;;;;;;;;;;;;;;;;;;5094368;28;19961;-67
2023/04/02 06:01:48;;;;;;;;;;;;;;;;;;5094438;28;19908;-69
2023/04/02 06:04:14;;;;;;;;;;;;;;;;;;5093712;28;19912;-69
2023/04/02 06:06:40;;;;;;;;;;;;;;;;;;5094049;28;20273;-68
2023/04/02 06:09:07;;;;;;;;;;;;;;;;;;5093418;28;19908;-68
2023/04/02 06:11:33;;;;;;;;;;;;;;;;;;5093947;28;19919;-68
2023/04/02 06:13:59;;;;;;;;;;;;;;;;;;5093746;28;19924;-68
2023/04/02 06:16:25;;;;;;;;;;;;;;;;;;5093466;28;19909;-68
2023/04/02 06:18:51;;;;;;;;;;;;;;;;;;5093932;28;19948;-68
2023/04/02 06:21:17;;;;;;;;;;;;;;;;;;5093891;28;19954;-68
2023/04/02 06:23:43;;;;;;;;;;;;;;;;;;5093567;28;19912;-68
2023/04/02 06:26:09;;;;;;;;;;;;;;;;;;5093994;28;20387;-68
2023/04/02 06:28:34;;;;;;;;;;;;;;;;;;5094025;28;20433;-67
2023/04/02 06:31:00;;;;;;;;;;;;;;;;;;5093400;28;19915;-68
2023/04/02 06:33:26;;;;;;;;;;;;;;;;;;5093696;28;19964;-68
2023/04/02 06:35:52;;;;;;;;;;;;;;;;;;5093813;28;19919;-68
2023/04/02 06:38:18;;;;;;;;;;;;;;;;;;5093347;28;19908;-68
2023/04/02 06:40:44;;;;;;;;;;;;;;;;;;5093658;28;19908;-68
2023/04/02 06:43:10;;;;;;;;;;;;;;;;;;5093670;28;19909;-68
2023/04/02 06:45:38;;;;;;;;;;;;;;;;;;5093243;28;19961;-67
2023/04/02 06:48:04;;;;;;;;;;;;;;;;;;5093685;28;19908;-68
2023/04/02 06:50:30;;;;;;;;;;;;;;;;;;5093612;28;20316;-67
2023/04/02 06:52:56;;;;;;;;;;;;;;;;;;5093186;28;19908;-68
2023/04/02 06:55:22;;;;;;;;;;;;;;;;;;5093454;28;19916;-68
2023/04/02 06:57:48;;;;;;;;;;;;;;;;;;5093631;28;20022;-68
2023/04/02 07:00:14;;;;;;;;;;;;;;;;;;5092968;28;19908;-68
2023/04/02 07:02:40;;;;;;;;;;;;;;;;;;5093449;28;19909;-69
2023/04/02 07:05:07;;;;;;;;;;;;;;;;;;5093499;28;19962;-69
2023/04/02 07:07:33;;;;;;;;;;;;;;;;;;5093481;28;19919;-68
2023/04/02 07:09:59;;;;;;;;;;;;;;;;;;5093509;28;19913;-68
2023/04/02 07:12:25;;;;;;;;;;;;;;;;;;5092991;28;19908;-70
2023/04/02 07:14:51;;;;;;;;;;;;;;;;;;5093248;28;19920;-70
2023/04/02 07:17:17;;;;;;;;;;;;;;;;;;5093438;28;20019;-68
2023/04/02 07:19:48;;;;;;;;;;;;;;;;;;5093149;28;19919;-69
2023/04/02 07:22:14;;;;;;;;;;;;;;;;;;5094800;28;19908;-68
2023/04/02 07:24:40;;;;;;;;;;;;;;;;;;5096986;28;19908;-70
2023/04/02 07:27:06;;;;;;;;;;;;;;;;;;5096789;28;19914;-69
2023/04/02 07:29:32;;;;;;;;;;;;;;;;;;5097037;28;19953;-68
2023/04/02 07:31:58;;;;;;;;;;;;;;;;;;5096985;28;19908;-69
2023/04/02 07:34:24;;;;;;;;;;;;;;;;;;5096361;28;19916;-70
2023/04/02 07:36:50;;;;;;;;;;;;;;;;;;5097095;28;19912;-68
2023/04/02 07:39:16;;;;;;;;;;;;;;;;;;5096708;28;19915;-68
2023/04/02 07:41:42;;;;;;;;;;;;;;;;;;5096433;28;19908;-69
2023/04/02 07:44:08;;;;;;;;;;;;;;;;;;5096850;28;19912;-70
2023/04/02 07:46:34;;;;;;;;;;;;;;;;;;5095278;28;19915;-69
2023/04/02 07:49:00;;;;;;;;;;;;;;;;;;5096476;28;20355;-69
2023/04/02 07:51:26;;;;;;;;;;;;;;;;;;5095215;28;19998;-68
2023/04/02 07:53:54;;;;;;;;;;;;;;;;;;5096287;28;19923;-68
2023/04/02 07:56:20;;;;;;;;;;;;;;;;;;5095904;28;19912;-68
2023/04/02 07:58:46;;;;;;;;;;;;;;;;;;5096402;28;19953;-69
2023/04/02 08:01:12;;;;;;;;;;;;;;;;;;5096237;28;19941;-68
2023/04/02 08:03:38;;;;;;;;;;;;;;;;;;5095794;28;19914;-68
2023/04/02 08:06:05;;;;;;;;;;;;;;;;;;5096190;28;19955;-68
2023/04/02 08:08:31;;;;;;;;;;;;;;;;;;5095761;28;20284;-69
2023/04/02 08:10:57;;;;;;;;;;;;;;;;;;5096545;28;19915;-68
2023/04/02 08:13:23;;;;;;;;;;;;;;;;;;5095949;28;19965;-68
2023/04/02 08:15:49;;;;;;;;;;;;;;;;;;5095571;28;20402;-68
2023/04/02 08:18:15;;;;;;;;;;;;;;;;;;5096125;28;19915;-69
2023/04/02 08:20:41;;;;;;;;;;;;;;;;;;5095936;28;19951;-70
2023/04/02 08:23:07;;;;;;;;;;;;;;;;;;5095403;28;19908;-68
2023/04/02 08:25:33;;;;;;;;;;;;;;;;;;5096051;28;20284;-69
2023/04/02 08:30:08;;;;;;;;;;;;;;;;;;5111584;27;19923;-69
2023/04/02 08:32:34;;;;;;;;;;;;;;;;;;5110498;28;20010;-69
2023/04/02 08:37:45;;;;;;;;;;;;;;;;;;5111711;27;19916;-68
2023/04/02 08:40:12;;;;;;;;;;;;;;;;;;5111759;28;19943;-69
2023/04/02 08:42:38;;;;;;;;;;;;;;;;;;5111668;28;19908;-68
2023/04/02 08:45:06;;;;;;;;;;;;;;;;;;5111369;28;19974;-69
2023/04/02 08:47:35;;;;;;;;;;;;;;;;;;5111516;28;20387;-69
2023/04/02 08:52:45;;;;;;;;;;;;;;;;;;5070807;28;19916;-68
2023/04/02 08:57:05;;;;;;;;;;;;;;;;;;5111925;27;19912;-68
2023/04/02 09:02:22;;;;;;;;;;;;;;;;;;5112186;27;20299;-68
2023/04/02 09:04:48;;;;;;;;;;;;;;;;;;5111238;28;19912;-69
2023/04/02 09:07:15;;;;;;;;;;;;;;;;;;5111626;28;19915;-69
2023/04/02 09:15:08;;;;;;;;;;;;;;;;;;5111756;27;19912;-69
2023/04/02 09:17:36;;;;;;;;;;;;;;;;;;5111821;28;20010;-68
2023/04/02 09:20:02;;;;;;;;;;;;;;;;;;5111373;28;19912;-68
2023/04/02 09:22:28;;;;;;;;;;;;;;;;;;5111648;28;20279;-68
2023/04/02 09:24:54;;;;;;;;;;;;;;;;;;5111556;28;19908;-69
2023/04/02 09:28:23;;;;;;;;;;;;;;;;;;5092188;27;20360;-70
2023/04/02 09:30:49;;;;;;;;;;;;;;;;;;5091335;28;19981;-68
2023/04/02 09:33:15;;;;;;;;;;;;;;;;;;5090968;28;20373;-68
2023/04/02 09:36:20;;;;;;;;;;;;;;;;;;5092179;27;19919;-68
2023/04/02 09:39:45;;;;;;;;;;;;;;;;;;5111761;27;19922;-69
2023/04/02 09:42:10;;;;;;;;;;;;;;;;;;5111330;28;20002;-70
2023/04/02 09:44:36;;;;;;;;;;;;;;;;;;5111648;28;19908;-69
2023/04/02 09:47:03;;;;;;;;;;;;;;;;;;5111484;28;19915;-69
2023/04/02 09:50:00;;;;;;;;;;;;;;;;;;5112503;27;19912;-70
2023/04/02 09:54:40;;;;;;;;;;;;;;;;;;5111536;27;19916;-69
2023/04/02 09:58:33;;;;;;;;;;;;;;;;;;5092131;27;19938;-69
2023/04/02 10:00:59;;;;;;;;;;;;;;;;;;5090979;28;20432;-69
2023/04/02 10:05:08;;;;;;;;;;;;;;;;;;5092011;27;19922;-69
2023/04/02 10:07:34;;;;;;;;;;;;;;;;;;5091325;28;20014;-68
2023/04/02 10:13:48;;;;;;;;;;;;;;;;;;5092219;28;19923;-69
2023/04/02 10:16:58;;;;;;;;;;;;;;;;;;5111301;27;19916;-69
2023/04/02 10:19:25;;;;;;;;;;;;;;;;;;5111833;28;20003;-68
2023/04/02 10:21:51;;;;;;;;;;;;;;;;;;5110314;28;20265;-69
2023/04/02 10:24:17;;;;;;;;;;;;;;;;;;5111186;28;19915;-69
2023/04/02 10:26:43;;;;;;;;;;;;;;;;;;5111918;28;20364;-69
2023/04/02 10:29:09;;;;;;;;;;;;;;;;;;5111165;28;20425;-69
2023/04/02 10:31:34;;;;;;;;;;;;;;;;;;5111468;28;20424;-69
2023/04/02 10:34:03;;;;;;;;;;;;;;;;;;5111462;28;19948;-70
2023/04/02 10:36:30;;;;;;;;;;;;;;;;;;5111104;28;19920;-69
2023/04/02 10:40:37;;;;;;;;;;;;;;;;;;5091653;27;19922;-68
2023/04/02 10:47:34;;;;;;;;;;;;;;;;;;5112268;27;19916;-68
2023/04/02 10:50:00;;;;;;;;;;;;;;;;;;5111685;28;20354;-68
2023/04/02 10:52:26;;;;;;;;;;;;;;;;;;5111249;28;19911;-70
2023/04/02 10:54:52;;;;;;;;;;;;;;;;;;5111520;28;19915;-69
2023/04/02 10:57:18;;;;;;;;;;;;;;;;;;5111249;28;19961;-70
2023/04/02 10:59:44;;;;;;;;;;;;;;;;;;5111517;28;19991;-69
2023/04/02 11:02:42;;;;;;;;;;;;;;;;;;5091561;27;19917;-69
2023/04/02 11:05:53;;;;;;;;;;;;;;;;;;5091150;27;19923;-69
2023/04/02 11:08:19;;;;;;;;;;;;;;;;;;5090045;28;20002;-69
2023/04/02 11:10:45;;;;;;;;;;;;;;;;;;5091216;28;20410;-69
2023/04/02 11:13:11;;;;;;;;;;;;;;;;;;5090784;28;19913;-69
2023/04/02 11:15:37;;;;;;;;;;;;;;;;;;5091096;28;19940;-69
2023/04/02 11:18:03;;;;;;;;;;;;;;;;;;5091124;28;19912;-70
2023/04/02 11:21:17;;;;;;;;;;;;;;;;;;5111993;27;19916;-70
2023/04/02 11:23:42;;;;;;;;;;;;;;;;;;5111719;28;20015;-69
2023/04/02 11:26:08;;;;;;;;;;;;;;;;;;5111302;28;19908;-70
2023/04/02 11:29:44;;;;;;;;;;;;;;;;;;5071729;28;19917;-69
2023/04/02 11:32:10;;;;;;;;;;;;;;;;;;5071125;28;19916;-70
2023/04/02 11:34:36;;;;;;;;;;;;;;;;;;5070713;28;19916;-70
2023/04/02 11:39:12;;;;;;;;;;;;;;;;;;5091786;28;19916;-69
2023/04/02 11:41:38;;;;;;;;;;;;;;;;;;5090896;28;20002;-69
2023/04/02 11:44:05;;;;;;;;;;;;;;;;;;5091466;28;20376;-69
2023/04/02 11:46:31;;;;;;;;;;;;;;;;;;5090791;28;19908;-69
2023/04/02 11:48:57;;;;;;;;;;;;;;;;;;5091190;28;19970;-69
2023/04/02 11:51:23;;;;;;;;;;;;;;;;;;5091188;28;19985;-69
2023/04/02 11:53:49;;;;;;;;;;;;;;;;;;5090714;28;20027;-69
2023/04/02 11:56:14;;;;;;;;;;;;;;;;;;5090968;28;19917;-69
2023/04/02 11:58:40;;;;;;;;;;;;;;;;;;5091290;28;19969;-70
2023/04/02 12:01:06;;;;;;;;;;;;;;;;;;5090371;28;19908;-69
2023/04/02 12:03:32;;;;;;;;;;;;;;;;;;5090901;28;19915;-70
2023/04/02 12:05:58;;;;;;;;;;;;;;;;;;5090793;28;19908;-68
2023/04/02 12:08:26;;;;;;;;;;;;;;;;;;5090607;28;19989;-70
2023/04/02 12:10:52;;;;;;;;;;;;;;;;;;5090844;28;19912;-68
2023/04/02 12:13:18;;;;;;;;;;;;;;;;;;5090702;28;20007;-69
2023/04/02 12:15:44;;;;;;;;;;;;;;;;;;5088967;28;20343;-69
2023/04/02 12:18:10;;;;;;;;;;;;;;;;;;5090562;28;20022;-69
2023/04/02 12:20:36;;;;;;;;;;;;;;;;;;5090587;28;20007;-68
2023/04/02 12:23:02;;;;;;;;;;;;;;;;;;5088912;28;19909;-67
2023/04/02 12:25:30;;;;;;;;;;;;;;;;;;5090522;28;19915;-69
2023/04/02 12:28:01;;;;;;;;;;;;;;;;;;5090423;28;19916;-69
2023/04/02 12:32:37;;;;;;;;;;;;;;;;;;5153638;27;19921;-70
2023/04/02 12:35:03;;;;;;;;;;;;;;;;;;5153093;27;20006;-69
2023/04/02 12:37:29;;;;;;;;;;;;;;;;;;5152285;27;19907;-70
2023/04/02 12:39:55;;;;;;;;;;;;;;;;;;5152689;27;19907;-68
2023/04/02 12:43:48;;;;;;;;;;;;;;;;;;5071225;28;19917;-68
2023/04/02 12:46:14;;;;;;;;;;;;;;;;;;5071085;28;20015;-68
2023/04/02 12:48:40;;;;;;;;;;;;;;;;;;5071334;28;20066;-68
2023/04/02 12:51:06;;;;;;;;;;;;;;;;;;5070990;28;19958;-70
2023/04/02 12:55:22;;;;;;;;;;;;;;;;;;5111576;27;19918;-68
2023/04/02 12:58:52;;;;;;;;;;;;;;;;;;5091067;27;19922;-68
2023/04/02 13:01:18;;;;;;;;;;;;;;;;;;5091345;28;19995;-67
2023/04/02 13:03:44;;;;;;;;;;;;;;;;;;5091281;28;19941;-68
2023/04/02 13:06:55;;;;;;;;;;;;;;;;;;5111928;27;19916;-69
2023/04/02 13:09:21;;;;;;;;;;;;;;;;;;5111950;28;20451;-69
2023/04/02 13:11:47;;;;;;;;;;;;;;;;;;5111205;28;19916;-70
2023/04/02 13:14:13;;;;;;;;;;;;;;;;;;5111560;28;19995;-68
2023/04/02 13:16:39;;;;;;;;;;;;;;;;;;5111837;28;19909;-69
2023/04/02 13:20:43;;;;;;;;;;;;;;;;;;5153760;27;19915;-68
2023/04/02 13:23:09;;;;;;;;;;;;;;;;;;5152798;27;20002;-68
2023/04/02 13:26:05;;;;;;;;;;;;;;;;;;5091259;27;19918;-69
2023/04/02 13:28:31;;;;;;;;;;;;;;;;;;5091332;28;19916;-69
2023/04/02 13:30:57;;;;;;;;;;;;;;;;;;5091155;28;19908;-69
2023/04/02 13:34:50;;;;;;;;;;;;;;;;;;5091394;27;19917;-69
2023/04/02 13:37:16;;;;;;;;;;;;;;;;;;5091283;28;19951;-67
2023/04/02 13:39:42;;;;;;;;;;;;;;;;;;5090834;28;19957;-67
2023/04/02 13:42:08;;;;;;;;;;;;;;;;;;5091491;28;19959;-70
2023/04/02 13:44:34;;;;;;;;;;;;;;;;;;5091200;28;19948;-68
2023/04/02 13:47:00;;;;;;;;;;;;;;;;;;5090948;28;20003;-68
2023/04/02 13:49:26;;;;;;;;;;;;;;;;;;5091074;28;19943;-68
2023/04/02 13:51:52;;;;;;;;;;;;;;;;;;5091013;28;19909;-69
2023/04/02 13:54:18;;;;;;;;;;;;;;;;;;5090570;28;19916;-68
2023/04/02 13:56:44;;;;;;;;;;;;;;;;;;5090968;28;19915;-69
2023/04/02 13:59:10;;;;;;;;;;;;;;;;;;5090880;28;19967;-68
2023/04/02 14:02:42;;;;;;;;;;;;;;;;;;5092071;27;19917;-69
2023/04/02 14:05:08;;;;;;;;;;;;;;;;;;5091901;28;19955;-70
2023/04/02 14:09:18;;;;;;;;;;;;;;;;;;5111274;27;19915;-69
2023/04/02 14:14:36;;;;;;;;;;;;;;;;;;5152775;27;20010;-69
2023/04/02 14:20:06;;;;;;;;;;;;;;;;;;5071980;28;20272;-67
2023/04/02 14:22:32;;;;;;;;;;;;;;;;;;5070647;28;20007;-67
2023/04/02 14:24:58;;;;;;;;;;;;;;;;;;5071042;28;20004;-68
2023/04/02 14:27:24;;;;;;;;;;;;;;;;;;5070962;28;19915;-68
2023/04/02 14:29:50;;;;;;;;;;;;;;;;;;5070472;28;20337;-68
2023/04/02 14:32:15;;;;;;;;;;;;;;;;;;5070903;28;20011;-68
2023/04/02 14:34:41;;;;;;;;;;;;;;;;;;5070887;28;19915;-69
2023/04/02 14:37:07;;;;;;;;;;;;;;;;;;5070470;28;19963;-69
2023/04/02 14:43:39;;;;;;;;;;;;;;;;;;5111311;27;19912;-68
2023/04/02 14:46:05;;;;;;;;;;;;;;;;;;5111699;28;19956;-68
2023/04/02 14:48:31;;;;;;;;;;;;;;;;;;5111567;28;19916;-69
2023/04/02 14:50:57;;;;;;;;;;;;;;;;;;5111184;28;20419;-68
2023/04/02 14:55:52;;;;;;;;;;;;;;;;;;5071701;28;20284;-69
2023/04/02 14:58:18;;;;;;;;;;;;;;;;;;5070765;28;20333;-70
2023/04/02 15:00:44;;;;;;;;;;;;;;;;;;5071052;28;19948;-70
2023/04/02 15:03:10;;;;;;;;;;;;;;;;;;5071007;28;19955;-70
2023/04/02 15:05:36;;;;;;;;;;;;;;;;;;5070495;28;19909;-71
2023/04/02 15:08:02;;;;;;;;;;;;;;;;;;5071217;28;19966;-70
2023/04/02 15:10:28;;;;;;;;;;;;;;;;;;5070441;28;19999;-69
2023/04/02 15:12:54;;;;;;;;;;;;;;;;;;5069547;28;19908;-68
2023/04/02 15:15:20;;;;;;;;;;;;;;;;;;5070739;28;19916;-69
2023/04/02 15:17:46;;;;;;;;;;;;;;;;;;5070364;28;19947;-68
2023/04/02 15:20:12;;;;;;;;;;;;;;;;;;5070687;28;20000;-69
2023/04/02 15:22:38;;;;;;;;;;;;;;;;;;5070539;28;19908;-69
2023/04/02 15:25:04;;;;;;;;;;;;;;;;;;5070204;28;19916;-69
2023/04/02 15:27:31;;;;;;;;;;;;;;;;;;5070504;28;20038;-69
2023/04/02 15:29:57;;;;;;;;;;;;;;;;;;5070507;28;19908;-69
2023/04/02 15:32:23;;;;;;;;;;;;;;;;;;5070010;28;20398;-70
2023/04/02 15:34:49;;;;;;;;;;;;;;;;;;5070240;28;19916;-69
2023/04/02 15:37:15;;;;;;;;;;;;;;;;;;5070232;28;19913;-69
2023/04/02 15:39:41;;;;;;;;;;;;;;;;;;5069962;28;19909;-70
2023/04/02 15:42:07;;;;;;;;;;;;;;;;;;5070398;28;19956;-69
2023/04/02 15:44:33;;;;;;;;;;;;;;;;;;5070064;28;19909;-69
2023/04/02 15:46:59;;;;;;;;;;;;;;;;;;5069636;28;19908;-69
2023/04/02 15:49:25;;;;;;;;;;;;;;;;;;5069952;28;19916;-69
2023/04/02 15:51:51;;;;;;;;;;;;;;;;;;5069893;28;19991;-69
2023/04/02 15:54:17;;;;;;;;;;;;;;;;;;5069332;28;19928;-69
2023/04/02 15:56:43;;;;;;;;;;;;;;;;;;5069843;28;19908;-69
2023/04/02 15:59:09;;;;;;;;;;;;;;;;;;5069880;28;19913;-68
2023/04/02 16:01:36;;;;;;;;;;;;;;;;;;5069297;28;19991;-68
2023/04/02 16:04:02;;;;;;;;;;;;;;;;;;5069638;28;19916;-70
2023/04/02 16:06:28;;;;;;;;;;;;;;;;;;5060554;28;19913;-69
2023/04/02 16:08:55;;;;;;;;;;;;;;;;;;5056088;28;19940;-69
2023/04/02 16:11:21;;;;;;;;;;;;;;;;;;5056701;28;19909;-69
2023/04/02 16:13:47;;;;;;;;;;;;;;;;;;5055945;28;19958;-70
2023/04/02 16:16:13;;;;;;;;;;;;;;;;;;5056280;28;19913;-68
2023/04/02 16:18:40;;;;;;;;;;;;;;;;;;5056260;28;20295;-68
2023/04/02 16:21:06;;;;;;;;;;;;;;;;;;5055801;28;20212;-69
2023/04/02 16:23:32;;;;;;;;;;;;;;;;;;5056095;28;19916;-68
2023/04/02 16:28:25;;;;;;;;;;;;;;;;;;5111350;27;20089;-69
2023/04/02 16:30:51;;;;;;;;;;;;;;;;;;5112033;28;20423;-68
2023/04/02 16:33:17;;;;;;;;;;;;;;;;;;5111553;28;19908;-68
2023/04/02 16:35:43;;;;;;;;;;;;;;;;;;5111193;28;19918;-68
2023/04/02 16:39:52;;;;;;;;;;;;;;;;;;5091627;27;19919;-70
2023/04/02 16:42:18;;;;;;;;;;;;;;;;;;5091269;28;20003;-69
2023/04/02 16:45:34;;;;;;;;;;;;;;;;;;5112371;27;19916;-69
2023/04/02 16:48:02;;;;;;;;;;;;;;;;;;5112016;28;19915;-70
2023/04/02 16:50:28;;;;;;;;;;;;;;;;;;5111561;28;20376;-70
2023/04/02 16:52:54;;;;;;;;;;;;;;;;;;5111821;28;19915;-68
2023/04/02 16:57:31;;;;;;;;;;;;;;;;;;5152586;27;20393;-69
2023/04/02 17:04:37;;;;;;;;;;;;;;;;;;5070885;28;19939;-68
2023/04/02 17:07:03;;;;;;;;;;;;;;;;;;5071293;28;20433;-68
2023/04/02 17:11:32;;;;;;;;;;;;;;;;;;5111567;27;19916;-68
2023/04/02 17:14:19;;;;;;;;;;;;;;;;;;5112458;27;20280;-67
2023/04/02 17:19:17;;;;;;;;;;;;;;;;;;5091418;27;19912;-69
2023/04/02 17:21:43;;;;;;;;;;;;;;;;;;5091400;28;19912;-69
2023/04/02 17:24:09;;;;;;;;;;;;;;;;;;5091123;28;19913;-68
2023/04/02 17:26:35;;;;;;;;;;;;;;;;;;5091236;28;19908;-68
2023/04/02 17:31:11;;;;;;;;;;;;;;;;;;5111672;27;19922;-68
2023/04/02 17:34:51;;;;;;;;;;;;;;;;;;5091503;27;19916;-69
2023/04/02 17:37:17;;;;;;;;;;;;;;;;;;5091363;28;20003;-69
2023/04/02 17:40:07;;;;;;;;;;;;;;;;;;5070807;28;19913;-68
2023/04/02 17:43:39;;;;;;;;;;;;;;;;;;5111917;27;19912;-69
2023/04/02 17:47:21;;;;;;;;;;;;;;;;;;5123381;27;19991;-68
2023/04/02 17:49:47;;;;;;;;;;;;;;;;;;5091329;28;20018;-68
2023/04/02 17:52:13;;;;;;;;;;;;;;;;;;5091004;28;19908;-69
2023/04/02 17:54:39;;;;;;;;;;;;;;;;;;5091351;28;19999;-68
2023/04/02 17:57:05;;;;;;;;;;;;;;;;;;5091752;28;20413;-67
2023/04/02 18:02:54;;;;;;;;;;;;;;;;;;5092144;27;20356;-69
2023/04/02 18:05:46;;;;;;;;;;;;;;;;;;5153160;27;20010;-69
2023/04/02 18:08:13;;;;;;;;;;;;;;;;;;5152577;27;19943;-68
2023/04/02 18:10:39;;;;;;;;;;;;;;;;;;5152903;27;19915;-68
2023/04/02 18:13:20;;;;;;;;;;;;;;;;;;5091162;27;19912;-67